Brashear, Texas
Current Conditions -  °F | °C
As of 10:15 AM on Thursday 27 Nov 2014 (Local Time) from KSLR Reporting Station
Clear Clear  
Wind Chill: 45°   Ceiling: Unl
Heat Index: 49°   Visibility: 10mi
Dew Point: 22°   Wind: 9mph
Humidity: 35%   Direction: 30°NNE
Pressure: 30.57"   Gusts: NA
Location:  33.12°N, 95.73°W
Report Text: KSLR 271615Z AUTO 03008KT 10SM CLR 10/M05 A3057 RMK AO2 T00961054
Loading
Personal Weather Stations






























Interactive Weather Map New forecast layout! Learn more

10-Day Weather Forecast

Advertisements
Track Severe Weather on mobile